Time;durP1;ratioP1;P1;durP2;ratioP2;P2;SDS_P1;SDS_P2;PMS_P1;PMS_P2;Temp;Humidity;BMP_temperature;BMP_pressure;BME280_temperature;BME280_humidity;BME280_pressure;Samples;Min_cycle;Max_cycle;Signal;HPM_P1;HPM_P2
2023/03/26 00:00:48;;;;;;;10.00;1.98;;;8.40;99.90;;;;;;5065076;28;20733;-83
2023/03/26 00:03:16;;;;;;;6.63;1.50;;;8.50;99.90;;;;;;5057439;28;20029;-83
2023/03/26 00:05:42;;;;;;;8.10;1.48;;;8.50;99.90;;;;;;5064869;28;20028;-82
2023/03/26 00:08:09;;;;;;;8.63;1.92;;;8.50;99.90;;;;;;5063076;28;20040;-80
2023/03/26 00:10:36;;;;;;;7.57;1.48;;;8.50;99.90;;;;;;5065217;28;20163;-82
2023/03/26 00:13:03;;;;;;;12.75;1.90;;;8.60;99.90;;;;;;5065109;28;20062;-81
2023/03/26 00:15:29;;;;;;;9.77;1.85;;;8.60;99.90;;;;;;5056828;28;20518;-80
2023/03/26 00:17:55;;;;;;;10.15;2.58;;;8.60;99.90;;;;;;5064957;28;20497;-82
2023/03/26 00:20:21;;;;;;;5.95;1.65;;;8.60;99.90;;;;;;5057247;28;20106;-82
2023/03/26 00:22:47;;;;;;;11.00;2.83;;;8.60;99.90;;;;;;5063909;28;20077;-83
2023/03/26 00:25:13;;;;;;;11.80;1.77;;;8.60;99.90;;;;;;5064373;28;20028;-81
2023/03/26 00:27:39;;;;;;;12.32;2.35;;;8.60;99.90;;;;;;5064695;28;20032;-81
2023/03/26 00:30:06;;;;;;;11.00;2.45;;;8.60;99.90;;;;;;5064063;28;20093;-83
2023/03/26 00:32:31;;;;;;;10.48;2.42;;;8.60;99.90;;;;;;5061616;28;20107;-82
2023/03/26 00:34:57;;;;;;;11.52;2.28;;;8.60;99.90;;;;;;5057962;28;20023;-83
2023/03/26 00:37:26;;;;;;;17.08;2.78;;;8.60;99.90;;;;;;5058369;28;20036;-82
2023/03/26 00:39:58;;;;;;;11.80;3.03;;;8.60;99.90;;;;;;5071011;28;20017;-81
2023/03/26 00:42:25;;;;;;;12.48;2.80;;;8.50;99.90;;;;;;5059914;28;20029;-81
2023/03/26 00:44:54;;;;;;;13.93;3.35;;;8.50;99.90;;;;;;5066812;28;20028;-82
2023/03/26 00:47:20;;;;;;;9.20;2.40;;;8.50;99.90;;;;;;5060274;28;20032;-81
2023/03/26 00:49:47;;;;;;;12.65;2.97;;;8.50;99.90;;;;;;5066822;28;20028;-82
2023/03/26 00:52:17;;;;;;;10.98;2.30;;;8.50;99.90;;;;;;5065359;28;20098;-82
2023/03/26 00:54:46;;;;;;;11.60;2.80;;;8.50;99.90;;;;;;5063435;28;20050;-82
2023/03/26 00:57:12;;;;;;;11.90;2.83;;;8.50;99.90;;;;;;5064739;28;20068;-80
2023/03/26 00:59:38;;;;;;;13.93;3.38;;;8.50;99.90;;;;;;5065069;28;20088;-82
2023/03/26 01:02:08;;;;;;;13.68;3.38;;;8.50;99.90;;;;;;5066268;28;20032;-81
2023/03/26 01:04:36;;;;;;;17.90;3.03;;;8.50;99.90;;;;;;5064868;28;20568;-81
2023/03/26 01:07:20;;;;;;;11.43;2.92;;;8.50;99.90;;;;;;5062447;28;20028;-81
2023/03/26 01:09:49;;;;;;;11.75;3.47;;;8.50;99.90;;;;;;5062081;28;20037;-82
2023/03/26 01:12:18;;;;;;;12.65;3.00;;;8.40;99.90;;;;;;5061489;28;20075;-82
2023/03/26 01:14:45;;;;;;;16.70;3.60;;;8.40;99.90;;;;;;5079028;28;21045;-82
2023/03/26 01:17:11;;;;;;;16.45;3.20;;;8.50;99.90;;;;;;5060845;28;20028;-83
2023/03/26 01:20:12;;;;;;;12.77;3.60;;;8.40;99.90;;;;;;5063634;28;20031;-82
2023/03/26 01:22:41;;;;;;;10.85;3.10;;;8.40;99.90;;;;;;5062637;28;20113;-83
2023/03/26 01:25:08;;;;;;;12.50;3.47;;;8.40;99.90;;;;;;5062530;28;20185;-82
2023/03/26 01:27:49;;;;;;;12.70;3.05;;;8.50;99.90;;;;;;5063780;28;20075;-83
2023/03/26 01:30:20;;;;;;;15.82;3.08;;;8.50;99.90;;;;;;5077877;28;20036;-82
2023/03/26 01:33:12;;;;;;;16.08;3.60;;;8.50;99.90;;;;;;5062243;28;20036;-81
2023/03/26 01:35:56;;;;;;;9.65;3.15;;;8.60;99.90;;;;;;5063897;28;20066;-82
2023/03/26 01:38:27;;;;;;;13.75;3.08;;;8.60;99.90;;;;;;5056755;28;20034;-82
2023/03/26 01:40:59;;;;;;;9.15;2.47;;;8.60;99.90;;;;;;5063502;28;20431;-83
2023/03/26 01:43:40;;;;;;;11.32;2.65;;;8.60;99.90;;;;;;5062906;28;20029;-83
2023/03/26 01:46:08;;;;;;;12.38;3.05;;;8.60;99.90;;;;;;5059087;28;20036;-83
2023/03/26 01:48:38;;;;;;;13.15;3.28;;;8.60;99.90;;;;;;5063124;28;20040;-83
2023/03/26 01:51:05;;;;;;;7.43;2.30;;;8.60;99.90;;;;;;5060460;28;20024;-83
2023/03/26 01:53:33;;;;;;;9.50;2.78;;;8.60;99.90;;;;;;5063208;28;20071;-82
2023/03/26 01:56:05;;;;;;;12.45;2.78;;;8.60;99.90;;;;;;5063167;28;20013;-82
2023/03/26 01:58:40;;;;;;;10.07;2.22;;;8.60;99.90;;;;;;5060777;28;20037;-82
2023/03/26 02:01:23;;;;;;;10.18;2.63;;;8.60;99.90;;;;;;5056002;28;21857;-83
2023/03/26 02:04:14;;;;;;;11.83;2.73;;;8.70;99.90;;;;;;5060248;28;20139;-82
2023/03/26 02:06:46;;;;;;;11.63;3.22;;;8.70;99.90;;;;;;5062252;28;20455;-82
2023/03/26 02:09:19;;;;;;;15.10;2.43;;;8.60;99.90;;;;;;5062723;28;20393;-83
2023/03/26 02:11:46;;;;;;;16.50;3.13;;;8.60;99.90;;;;;;5079109;28;20065;-84
2023/03/26 02:14:13;;;;;;;13.00;3.10;;;8.70;99.90;;;;;;5060828;28;20029;-80
2023/03/26 02:16:39;;;;;;;19.40;4.72;;;8.70;99.90;;;;;;5063642;28;20024;-83
2023/03/26 02:19:08;;;;;;;13.50;3.67;;;8.70;99.90;;;;;;5063231;28;20351;-82
2023/03/26 02:21:34;;;;;;;14.02;3.80;;;8.70;99.90;;;;;;5063396;28;20033;-82
2023/03/26 02:24:02;;;;;;;14.43;3.95;;;8.70;99.90;;;;;;5079730;28;20367;-81
2023/03/26 02:26:30;;;;;;;13.60;3.70;;;8.70;99.90;;;;;;5062699;28;20044;-83
2023/03/26 02:28:57;;;;;;;18.45;4.38;;;8.70;99.90;;;;;;5062688;28;20040;-81
2023/03/26 02:31:25;;;;;;;13.80;3.53;;;8.70;99.90;;;;;;5054514;28;20389;-81
2023/03/26 02:33:51;;;;;;;12.50;3.15;;;8.70;99.90;;;;;;5061396;28;20029;-81
2023/03/26 02:36:20;;;;;;;13.73;3.35;;;8.70;99.90;;;;;;5060980;28;20386;-83
2023/03/26 02:38:46;;;;;;;13.85;3.35;;;8.70;99.90;;;;;;5061468;28;20544;-81
2023/03/26 02:41:12;;;;;;;19.65;4.13;;;8.70;99.90;;;;;;5059954;28;20081;-82
2023/03/26 02:43:38;;;;;;;17.08;4.60;;;8.70;99.90;;;;;;5055356;28;20032;-83
2023/03/26 02:46:03;;;;;;;15.80;3.83;;;8.70;99.90;;;;;;5064795;28;20063;-82
2023/03/26 02:48:30;;;;;;;19.75;5.45;;;8.80;99.90;;;;;;5059044;28;20047;-81
2023/03/26 02:50:56;;;;;;;17.85;4.47;;;8.80;99.90;;;;;;5065149;28;20060;-81
2023/03/26 02:53:22;;;;;;;15.00;3.95;;;8.70;99.90;;;;;;5066233;28;20074;-82
2023/03/26 02:55:49;;;;;;;20.42;5.10;;;8.80;99.90;;;;;;5058603;28;20386;-82
2023/03/26 02:58:16;;;;;;;19.27;5.70;;;8.70;99.90;;;;;;5064335;28;20067;-81
2023/03/26 03:00:46;;;;;;;20.67;5.50;;;8.80;99.90;;;;;;5059757;28;20029;-82
2023/03/26 03:03:12;;;;;;;20.50;5.28;;;8.70;99.90;;;;;;5063924;28;20039;-81
2023/03/26 03:05:41;;;;;;;18.20;5.30;;;8.70;99.90;;;;;;5066885;28;20489;-82
2023/03/26 03:08:08;;;;;;;24.45;6.28;;;8.80;99.90;;;;;;5065466;28;20544;-82
2023/03/26 03:10:33;;;;;;;17.13;5.22;;;8.80;99.90;;;;;;5081975;28;20078;-82
2023/03/26 03:12:59;;;;;;;24.75;7.03;;;8.70;99.90;;;;;;5066489;28;20024;-83
2023/03/26 03:15:25;;;;;;;25.05;7.47;;;8.70;99.90;;;;;;5058465;28;20052;-81
2023/03/26 03:17:50;;;;;;;21.23;6.40;;;8.70;99.90;;;;;;5066323;28;20453;-82
2023/03/26 03:20:16;;;;;;;19.75;6.18;;;8.70;99.90;;;;;;5063892;28;20044;-81
2023/03/26 03:22:43;;;;;;;21.25;5.57;;;8.70;99.90;;;;;;5064361;28;20036;-82
2023/03/26 03:25:13;;;;;;;18.15;5.55;;;8.70;99.90;;;;;;5042598;28;20034;-82
2023/03/26 03:27:41;;;;;;;14.60;5.75;;;8.70;99.90;;;;;;5060500;28;20044;-82
2023/03/26 03:30:09;;;;;;;16.58;4.85;;;8.80;99.90;;;;;;5059948;28;20398;-82
2023/03/26 03:32:35;;;;;;;19.50;5.95;;;8.80;99.90;;;;;;5066619;28;20608;-82
2023/03/26 03:35:01;;;;;;;16.65;5.85;;;8.80;99.90;;;;;;5066928;28;20107;-81
2023/03/26 03:37:26;;;;;;;21.23;5.70;;;8.80;99.90;;;;;;5064165;28;20047;-81
2023/03/26 03:39:52;;;;;;;14.13;4.85;;;8.80;99.90;;;;;;5066257;28;20107;-80
2023/03/26 03:42:18;;;;;;;16.77;4.90;;;8.80;99.90;;;;;;5065482;28;20174;-80
2023/03/26 03:44:43;;;;;;;13.63;5.38;;;8.80;99.90;;;;;;5057952;28;20524;-82
2023/03/26 03:47:12;;;;;;;16.02;4.35;;;8.80;99.90;;;;;;5065284;28;20028;-82
2023/03/26 03:49:38;;;;;;;22.98;5.68;;;8.80;99.90;;;;;;5065800;28;20478;-83
2023/03/26 03:52:04;;;;;;;15.48;4.63;;;8.80;99.90;;;;;;5065738;28;20024;-82
2023/03/26 03:54:30;;;;;;;15.32;4.50;;;8.80;99.90;;;;;;5065307;28;20024;-83
2023/03/26 03:56:56;;;;;;;19.20;4.43;;;8.80;99.90;;;;;;5065272;28;20032;-82
2023/03/26 03:59:21;;;;;;;14.65;3.97;;;8.80;99.90;;;;;;5064983;28;20413;-83
2023/03/26 04:01:49;;;;;;;16.75;4.47;;;8.80;99.90;;;;;;5070783;28;20052;-84
2023/03/26 04:04:15;;;;;;;10.95;3.53;;;8.80;99.90;;;;;;5063250;28;20441;-83
2023/03/26 04:06:41;;;;;;;19.63;4.15;;;8.80;99.90;;;;;;5065419;28;20029;-82
2023/03/26 04:09:08;;;;;;;11.68;3.38;;;8.80;99.90;;;;;;5064846;28;20482;-83
2023/03/26 04:11:34;;;;;;;14.40;3.97;;;8.80;99.90;;;;;;5065025;28;20044;-83
2023/03/26 04:13:59;;;;;;;15.07;3.28;;;8.80;99.90;;;;;;5062629;28;20626;-82
2023/03/26 04:16:25;;;;;;;11.20;2.85;;;8.80;99.90;;;;;;5064414;28;20086;-83
2023/03/26 04:18:51;;;;;;;11.98;3.10;;;8.70;99.90;;;;;;5081087;28;20020;-82
2023/03/26 04:21:16;;;;;;;12.20;3.47;;;8.70;99.90;;;;;;5064550;28;20036;-82
2023/03/26 04:23:42;;;;;;;11.90;2.63;;;8.80;99.90;;;;;;5060929;28;20044;-82
2023/03/26 04:26:15;;;;;;;10.30;2.60;;;8.70;99.90;;;;;;5062036;28;20036;-82
2023/03/26 04:28:54;;;;;;;9.55;2.65;;;8.80;99.90;;;;;;5055237;28;20036;-81
2023/03/26 04:31:22;;;;;;;11.75;2.58;;;8.80;99.90;;;;;;5061926;28;20032;-80
2023/03/26 04:33:53;;;;;;;11.25;2.83;;;8.70;99.90;;;;;;5061905;28;20027;-82
2023/03/26 04:36:22;;;;;;;10.88;2.38;;;8.80;99.90;;;;;;5054523;28;20020;-82
2023/03/26 04:38:50;;;;;;;11.77;2.90;;;8.70;99.90;;;;;;5054819;28;20116;-82
2023/03/26 04:41:16;;;;;;;11.57;2.72;;;8.80;99.90;;;;;;5061526;28;20024;-83
2023/03/26 04:43:45;;;;;;;14.27;2.90;;;8.80;99.90;;;;;;5062217;28;20021;-81
2023/03/26 04:46:17;;;;;;;10.52;2.20;;;8.80;99.90;;;;;;5060253;28;20838;-81
2023/03/26 04:48:43;;;;;;;11.70;2.40;;;8.80;99.90;;;;;;5054682;28;20394;-81
2023/03/26 04:51:17;;;;;;;9.38;2.53;;;8.80;99.90;;;;;;5061493;28;20031;-82
2023/03/26 04:53:56;;;;;;;11.15;2.33;;;8.80;99.90;;;;;;5076613;28;20021;-82
2023/03/26 04:56:32;;;;;;;7.63;1.65;;;8.80;99.90;;;;;;5061609;28;20025;-81
2023/03/26 04:58:59;;;;;;;7.07;1.98;;;8.80;99.90;;;;;;5060042;28;20078;-82
2023/03/26 05:01:27;;;;;;;7.03;2.13;;;8.80;99.90;;;;;;5059894;28;20074;-82
2023/03/26 05:03:53;;;;;;;7.65;1.92;;;8.80;99.90;;;;;;5059791;28;20624;-81
2023/03/26 05:06:20;;;;;;;8.50;2.03;;;8.80;99.90;;;;;;5059814;28;20027;-81
2023/03/26 05:08:46;;;;;;;8.18;2.05;;;8.70;99.90;;;;;;5063467;28;20044;-82
2023/03/26 05:11:12;;;;;;;6.72;2.00;;;8.80;99.90;;;;;;5061551;28;20024;-82
2023/03/26 05:13:37;;;;;;;10.13;2.05;;;8.80;99.90;;;;;;5061435;28;20044;-80
2023/03/26 05:16:03;;;;;;;8.57;2.25;;;8.80;99.90;;;;;;5063065;28;20391;-81
2023/03/26 05:18:31;;;;;;;11.65;2.10;;;8.80;99.90;;;;;;5061318;28;20025;-82
2023/03/26 05:20:56;;;;;;;9.35;1.60;;;8.80;99.90;;;;;;5060796;28;20035;-82
2023/03/26 05:23:22;;;;;;;13.57;1.85;;;8.80;99.90;;;;;;5062421;28;20025;-81
2023/03/26 05:25:48;;;;;;;8.65;1.85;;;8.80;99.90;;;;;;5056650;28;20078;-82
2023/03/26 05:28:13;;;;;;;7.55;1.70;;;8.80;99.90;;;;;;5061135;28;20063;-82
2023/03/26 05:30:39;;;;;;;6.68;1.67;;;8.80;99.90;;;;;;5061927;28;20055;-81
2023/03/26 05:33:05;;;;;;;7.35;1.55;;;8.80;99.90;;;;;;5060395;28;20051;-83
2023/03/26 05:35:30;;;;;;;10.95;1.67;;;8.80;99.90;;;;;;5061010;28;20028;-81
2023/03/26 05:37:56;;;;;;;10.20;2.28;;;8.80;99.90;;;;;;5061992;28;20548;-81
2023/03/26 05:40:22;;;;;;;9.70;2.10;;;8.80;99.90;;;;;;5060407;28;20024;-84
2023/03/26 05:42:47;;;;;;;6.38;1.63;;;8.80;99.90;;;;;;5055158;28;20139;-82
2023/03/26 05:45:14;;;;;;;8.65;1.60;;;8.80;99.90;;;;;;5063111;28;20067;-80
2023/03/26 05:47:40;;;;;;;8.93;1.55;;;8.80;99.90;;;;;;5054842;28;20040;-82
2023/03/26 05:50:07;;;;;;;7.70;1.77;;;8.80;99.90;;;;;;5063205;28;20618;-82
2023/03/26 05:52:39;;;;;;;10.07;1.73;;;8.70;99.90;;;;;;5063161;28;20111;-82
2023/03/26 05:55:06;;;;;;;6.88;1.67;;;8.80;99.90;;;;;;5063048;28;20632;-83
2023/03/26 05:57:34;;;;;;;5.53;1.60;;;8.70;99.90;;;;;;5063720;28;20027;-81
2023/03/26 06:00:00;;;;;;;8.63;1.83;;;8.70;99.90;;;;;;5061721;28;20027;-82
2023/03/26 06:02:28;;;;;;;8.85;1.88;;;8.70;99.90;;;;;;5061788;28;20029;-83
2023/03/26 06:04:55;;;;;;;5.38;1.67;;;8.70;99.90;;;;;;5061849;28;20045;-81
2023/03/26 06:07:21;;;;;;;11.90;2.20;;;8.70;99.90;;;;;;5054520;28;20390;-82
2023/03/26 06:09:47;;;;;;;10.00;2.95;;;8.70;99.90;;;;;;5060350;28;20093;-82
2023/03/26 06:12:14;;;;;;;7.40;1.73;;;8.70;99.90;;;;;;5062833;28;20428;-82
2023/03/26 06:14:43;;;;;;;10.55;1.77;;;8.70;99.90;;;;;;5057155;28;20069;-80
2023/03/26 06:17:09;;;;;;;5.82;1.80;;;8.70;99.90;;;;;;5062441;28;20024;-82
2023/03/26 06:19:35;;;;;;;8.02;1.90;;;8.70;99.90;;;;;;5060382;28;20028;-81
2023/03/26 06:22:00;;;;;;;6.78;1.67;;;8.80;99.90;;;;;;5061911;28;20485;-82
2023/03/26 06:24:26;;;;;;;12.02;2.00;;;8.80;99.90;;;;;;5062681;28;20032;-81
2023/03/26 06:26:51;;;;;;;7.93;1.88;;;8.80;99.90;;;;;;5060550;28;20031;-82
2023/03/26 06:29:17;;;;;;;9.55;1.90;;;8.80;99.90;;;;;;5078330;28;20413;-81
2023/03/26 06:31:43;;;;;;;8.18;1.80;;;8.80;99.90;;;;;;5063018;28;20024;-82
2023/03/26 06:34:08;;;;;;;13.20;2.53;;;8.80;99.90;;;;;;5056530;28;20086;-82
2023/03/26 06:36:34;;;;;;;10.15;2.15;;;8.80;99.90;;;;;;5062801;28;20098;-82
2023/03/26 06:38:59;;;;;;;13.43;2.47;;;8.80;99.90;;;;;;5062746;28;20423;-82
2023/03/26 06:41:25;;;;;;;9.18;2.13;;;8.80;99.90;;;;;;5054854;28;20025;-83
2023/03/26 06:43:51;;;;;;;8.60;1.80;;;8.80;99.90;;;;;;5061012;28;20136;-82
2023/03/26 06:46:17;;;;;;;7.78;1.75;;;8.80;99.90;;;;;;5055456;28;20118;-83
2023/03/26 06:48:43;;;;;;;9.02;1.85;;;8.80;99.90;;;;;;5062708;28;20051;-82
2023/03/26 06:51:09;;;;;;;6.90;1.98;;;8.80;99.90;;;;;;5055434;28;20363;-83
2023/03/26 06:53:34;;;;;;;10.07;2.90;;;8.90;99.90;;;;;;5055788;28;20041;-82
2023/03/26 06:56:01;;;;;;;9.40;2.03;;;8.80;99.90;;;;;;5062813;28;20021;-82
2023/03/26 06:58:27;;;;;;;8.43;2.00;;;8.90;99.90;;;;;;5062165;28;20048;-82
2023/03/26 07:00:54;;;;;;;7.95;1.70;;;8.90;99.90;;;;;;5062672;28;20110;-82
2023/03/26 07:03:20;;;;;;;7.43;2.00;;;8.90;99.90;;;;;;5078236;28;20969;-83
2023/03/26 07:05:46;;;;;;;7.97;1.90;;;8.90;99.90;;;;;;5060386;28;20016;-82
2023/03/26 07:08:12;;;;;;;10.70;2.33;;;8.90;99.90;;;;;;5054686;28;20029;-84
2023/03/26 07:10:38;;;;;;;11.63;2.50;;;8.90;99.90;;;;;;5062358;28;20070;-83
2023/03/26 07:13:05;;;;;;;7.40;2.20;;;8.90;99.90;;;;;;5067963;28;20044;-83
2023/03/26 07:15:30;;;;;;;10.10;2.50;;;8.90;99.90;;;;;;5077908;28;21010;-83
2023/03/26 07:17:56;;;;;;;15.77;3.20;;;8.90;99.90;;;;;;5062447;28;20029;-82
2023/03/26 07:20:22;;;;;;;7.57;2.08;;;8.90;99.90;;;;;;5055058;28;20043;-83
2023/03/26 07:22:48;;;;;;;9.50;2.13;;;8.90;99.90;;;;;;5062614;28;20032;-82
2023/03/26 07:25:14;;;;;;;7.90;2.38;;;9.00;99.90;;;;;;5054372;28;20085;-83
2023/03/26 07:28:10;;;;;;;7.75;2.45;;;9.00;99.90;;;;;;5055574;28;20778;-82
2023/03/26 07:30:50;;;;;;;8.43;2.22;;;9.00;99.90;;;;;;5057798;28;20036;-83
2023/03/26 07:33:19;;;;;;;8.15;2.20;;;9.00;99.90;;;;;;5081322;28;20032;-82
2023/03/26 07:35:59;;;;;;;9.23;2.15;;;9.00;99.90;;;;;;5063791;28;20036;-81
2023/03/26 07:38:25;;;;;;;11.50;2.88;;;9.00;99.90;;;;;;5065702;28;20581;-83
2023/03/26 07:40:56;;;;;;;8.77;2.17;;;9.00;99.90;;;;;;5066014;28;20032;-83
2023/03/26 07:43:49;;;;;;;11.45;2.60;;;9.00;99.90;;;;;;5064567;28;20025;-83
2023/03/26 07:46:16;;;;;;;8.45;2.00;;;8.90;99.90;;;;;;5080627;28;20042;-82
2023/03/26 07:48:43;;;;;;;9.32;2.40;;;8.90;99.90;;;;;;5063860;28;20036;-82
2023/03/26 07:51:10;;;;;;;9.93;2.17;;;9.00;99.90;;;;;;5065412;28;20028;-81
2023/03/26 07:53:36;;;;;;;9.13;2.55;;;9.00;99.90;;;;;;5065519;28;20039;-81
2023/03/26 07:56:17;;;;;;;13.35;3.00;;;9.00;99.90;;;;;;5072106;28;20390;-83
2023/03/26 07:58:55;;;;;;;8.82;2.40;;;9.00;99.90;;;;;;5064908;28;20028;-81
2023/03/26 08:01:45;;;;;;;9.45;2.80;;;9.10;99.90;;;;;;5065333;28;20153;-82
2023/03/26 08:04:32;;;;;;;11.18;3.25;;;9.10;99.90;;;;;;5064848;28;20140;-82
2023/03/26 08:07:16;;;;;;;12.35;2.75;;;9.10;99.90;;;;;;5065262;28;20055;-80
2023/03/26 08:10:00;;;;;;;12.75;2.88;;;9.00;99.90;;;;;;5062640;28;20028;-82
2023/03/26 08:12:53;;;;;;;12.82;3.75;;;9.00;99.90;;;;;;5079605;28;20746;-83
2023/03/26 08:15:32;;;;;;;14.98;3.08;;;8.90;99.90;;;;;;5064431;28;20107;-82
2023/03/26 08:18:40;;;;;;;20.77;4.78;;;8.90;99.90;;;;;;5063959;28;20029;-83
2023/03/26 08:21:16;;;;;;;25.35;5.13;;;8.80;99.90;;;;;;5064977;28;20032;-84
2023/03/26 08:24:05;;;;;;;18.35;4.53;;;8.70;99.90;;;;;;5057784;28;20078;-83
2023/03/26 08:26:46;;;;;;;16.67;4.88;;;8.60;99.90;;;;;;5057726;28;20067;-82
2023/03/26 08:29:37;;;;;;;21.58;5.20;;;8.70;99.90;;;;;;5064309;28;20111;-82
2023/03/26 08:32:07;;;;;;;18.75;4.35;;;8.70;99.90;;;;;;5051816;28;20086;-82
2023/03/26 08:34:33;;;;;;;20.25;5.15;;;8.60;99.90;;;;;;5070188;28;20036;-82
2023/03/26 08:37:00;;;;;;;26.40;5.30;;;8.60;99.90;;;;;;5064875;28;20358;-83
2023/03/26 08:39:25;;;;;;;20.70;5.25;;;8.60;99.90;;;;;;5070042;28;20035;-83
2023/03/26 08:42:18;;;;;;;14.23;4.70;;;8.60;99.90;;;;;;5079457;28;20025;-83
2023/03/26 08:45:17;;;;;;;12.87;4.57;;;8.60;99.90;;;;;;5064441;28;20046;-83
2023/03/26 08:48:16;;;;;;;13.50;4.90;;;8.50;99.90;;;;;;5058181;28;20033;-83
2023/03/26 08:51:03;;;;;;;14.27;4.78;;;8.50;99.90;;;;;;5064407;28;20063;-82
2023/03/26 08:53:31;;;;;;;11.73;4.50;;;8.50;99.90;;;;;;5063284;28;20032;-83
2023/03/26 08:56:19;;;;;;;16.55;5.03;;;8.40;99.90;;;;;;5062642;28;20028;-82
2023/03/26 08:58:57;;;;;;;14.75;4.60;;;8.40;99.90;;;;;;5064200;28;20067;-82
2023/03/26 09:01:26;;;;;;;14.20;5.35;;;8.30;99.90;;;;;;5064448;28;20032;-83
2023/03/26 09:04:12;;;;;;;11.95;4.03;;;8.30;99.90;;;;;;5063153;28;20056;-83
2023/03/26 09:06:46;;;;;;;9.65;3.47;;;8.40;99.90;;;;;;5064145;28;20107;-83
2023/03/26 09:09:15;;;;;;;7.57;2.30;;;8.50;99.90;;;;;;5063886;28;20041;-83
2023/03/26 09:12:19;;;;;;;5.38;2.45;;;8.60;99.90;;;;;;5061778;28;20021;-83
2023/03/26 09:15:12;;;;;;;6.85;2.60;;;8.70;99.90;;;;;;5033957;28;20037;-83
2023/03/26 09:18:17;;;;;;;7.38;2.75;;;8.80;99.90;;;;;;5061877;28;20131;-83
2023/03/26 09:21:24;;;;;;;9.05;2.55;;;8.90;99.90;;;;;;5063043;28;20029;-83
2023/03/26 09:24:14;;;;;;;7.90;2.40;;;8.80;99.90;;;;;;5061961;28;20066;-84
2023/03/26 09:26:58;;;;;;;8.15;3.05;;;8.80;99.90;;;;;;5063004;28;20025;-83
2023/03/26 09:29:53;;;;;;;6.15;2.22;;;8.80;99.90;;;;;;5079018;28;20041;-83
2023/03/26 09:32:41;;;;;;;8.02;2.15;;;8.80;99.90;;;;;;5079560;28;20040;-83
2023/03/26 09:35:34;;;;;;;7.75;2.90;;;8.80;99.90;;;;;;5061187;28;20023;-84
2023/03/26 09:38:36;;;;;;;4.78;2.45;;;8.90;99.90;;;;;;5063897;28;20497;-82
2023/03/26 09:41:20;;;;;;;6.03;1.70;;;8.90;99.90;;;;;;5058381;28;20040;-83
2023/03/26 09:43:48;;;;;;;8.65;2.08;;;8.90;99.90;;;;;;5060849;28;20025;-83
2023/03/26 09:46:41;;;;;;;7.55;2.00;;;8.90;99.90;;;;;;5063475;28;20538;-83
2023/03/26 09:49:28;;;;;;;6.78;2.28;;;9.10;99.90;;;;;;5062793;28;20051;-83
2023/03/26 09:52:12;;;;;;;4.55;1.88;;;9.10;99.90;;;;;;5061695;28;20036;-83
2023/03/26 09:55:19;;;;;;;7.65;2.78;;;9.20;99.90;;;;;;5060628;28;20025;-84
2023/03/26 09:57:44;;;;;;;8.02;3.80;;;9.20;99.90;;;;;;5063096;28;20020;-84
2023/03/26 10:00:25;;;;;;;6.75;3.65;;;9.00;99.90;;;;;;5060650;28;20038;-83
2023/03/26 10:03:30;;;;;;;10.32;4.10;;;9.00;99.90;;;;;;5063158;28;20037;-84
2023/03/26 10:06:05;;;;;;;10.43;4.25;;;9.00;99.90;;;;;;5061330;28;20082;-83
2023/03/26 10:09:00;;;;;;;7.88;3.42;;;8.90;99.90;;;;;;5079008;28;20044;-83
2023/03/26 10:11:53;;;;;;;8.00;3.40;;;8.90;99.90;;;;;;5077577;28;20500;-83
2023/03/26 10:14:27;;;;;;;7.03;3.58;;;8.90;99.90;;;;;;5063314;28;20056;-83
2023/03/26 10:17:05;;;;;;;9.35;3.53;;;9.00;99.90;;;;;;5061070;28;20024;-83
2023/03/26 10:19:48;;;;;;;7.28;2.80;;;9.00;99.90;;;;;;5062918;28;20032;-83
2023/03/26 10:22:22;;;;;;;6.45;2.90;;;9.20;99.90;;;;;;5062691;28;20040;-83
2023/03/26 10:25:11;;;;;;;5.10;2.83;;;9.30;99.90;;;;;;5063131;28;20040;-84
2023/03/26 10:28:03;;;;;;;6.38;2.85;;;9.40;99.90;;;;;;5062763;28;20400;-84
2023/03/26 10:30:35;;;;;;;7.03;2.92;;;9.50;99.90;;;;;;5059824;28;20036;-82
2023/03/26 10:33:32;;;;;;;8.98;2.75;;;9.60;99.90;;;;;;5063010;28;20065;-82
2023/03/26 10:36:07;;;;;;;7.03;2.80;;;9.70;99.90;;;;;;5063055;28;20028;-81
2023/03/26 10:39:02;;;;;;;5.63;2.40;;;9.80;99.90;;;;;;5062576;28;20111;-83
2023/03/26 10:42:05;;;;;;;7.45;2.47;;;10.00;99.90;;;;;;5062487;28;20044;-82
2023/03/26 10:44:54;;;;;;;7.55;2.95;;;10.10;99.90;;;;;;5044868;28;20033;-83
2023/03/26 10:47:56;;;;;;;9.82;3.72;;;10.10;99.90;;;;;;5054965;28;20078;-83
2023/03/26 10:50:43;;;;;;;6.95;2.92;;;10.20;99.90;;;;;;5055216;28;20382;-82
2023/03/26 10:53:21;;;;;;;7.07;2.83;;;10.30;99.90;;;;;;5055923;28;20033;-82
2023/03/26 10:55:53;;;;;;;8.73;3.42;;;10.40;99.90;;;;;;5054922;28;20055;-83
2023/03/26 10:58:28;;;;;;;6.03;2.70;;;10.50;99.90;;;;;;5062379;28;20377;-83
2023/03/26 11:01:03;;;;;;;7.63;2.92;;;10.50;99.90;;;;;;5062753;28;20770;-83
2023/03/26 11:03:53;;;;;;;7.60;2.55;;;10.40;99.90;;;;;;5053962;28;20055;-82
2023/03/26 11:06:43;;;;;;;7.55;2.58;;;10.40;99.90;;;;;;5063571;28;20683;-83
2023/03/26 11:09:17;;;;;;;6.28;2.33;;;10.30;99.90;;;;;;5063345;28;20112;-82
2023/03/26 11:12:02;;;;;;;6.53;2.22;;;10.20;99.90;;;;;;5065241;28;20028;-82
2023/03/26 11:14:44;;;;;;;6.93;1.85;;;10.10;99.90;;;;;;5064781;28;20044;-83
2023/03/26 11:17:19;;;;;;;6.63;1.95;;;10.00;99.90;;;;;;5064804;28;20104;-83
2023/03/26 11:19:55;;;;;;;5.35;2.05;;;9.80;99.90;;;;;;5064414;28;20020;-83
2023/03/26 11:22:39;;;;;;;6.40;1.73;;;9.70;99.90;;;;;;5081719;28;20542;-84
2023/03/26 11:25:18;;;;;;;7.32;1.85;;;9.60;99.90;;;;;;5066147;28;20052;-84
2023/03/26 11:28:03;;;;;;;4.30;1.88;;;9.50;99.90;;;;;;5067075;28;20121;-83
2023/03/26 11:30:54;;;;;;;5.43;2.17;;;9.40;99.90;;;;;;5066014;28;20020;-82
2023/03/26 11:33:25;;;;;;;9.07;5.07;;;9.40;99.90;;;;;;5082824;28;20102;-83
2023/03/26 11:35:54;;;;;;;8.15;4.63;;;9.30;99.90;;;;;;5067385;28;20155;-82
2023/03/26 11:38:36;;;;;;;8.38;4.75;;;9.30;99.90;;;;;;5082347;28;20028;-82
2023/03/26 11:41:03;;;;;;;8.75;5.32;;;9.20;99.90;;;;;;5066392;28;20083;-82
2023/03/26 11:43:34;;;;;;;10.07;6.03;;;9.20;99.90;;;;;;5085366;28;20157;-84
2023/03/26 11:46:03;;;;;;;11.80;6.07;;;9.20;99.90;;;;;;5070753;28;20036;-83
2023/03/26 11:48:39;;;;;;;10.75;6.28;;;9.10;99.90;;;;;;5061779;28;20036;-83
2023/03/26 11:51:17;;;;;;;10.07;5.60;;;9.20;99.90;;;;;;5083835;28;20028;-85
2023/03/26 11:53:45;;;;;;;9.77;5.70;;;9.20;99.90;;;;;;5064415;28;20039;-84
2023/03/26 11:56:29;;;;;;;10.68;5.88;;;9.30;99.90;;;;;;5080431;28;20039;-82
2023/03/26 11:59:17;;;;;;;9.68;5.80;;;9.40;99.90;;;;;;5065942;28;20032;-83
2023/03/26 12:01:49;;;;;;;13.75;6.07;;;9.40;99.90;;;;;;5065016;28;20047;-83
2023/03/26 12:04:17;;;;;;;13.93;6.88;;;9.50;99.90;;;;;;5064420;28;20053;-82
2023/03/26 12:07:20;;;;;;;11.93;6.03;;;9.40;99.90;;;;;;5058190;28;20538;-82
2023/03/26 12:09:52;;;;;;;9.43;5.53;;;9.30;99.90;;;;;;5043179;28;20044;-82
2023/03/26 12:12:19;;;;;;;9.32;5.43;;;9.30;99.90;;;;;;5061203;28;20033;-83
2023/03/26 12:14:45;;;;;;;11.32;5.53;;;9.30;99.90;;;;;;5060810;28;20043;-83
2023/03/26 12:17:14;;;;;;;13.38;6.45;;;9.20;99.90;;;;;;5078328;28;20139;-84
2023/03/26 12:19:40;;;;;;;11.48;6.40;;;9.10;99.90;;;;;;5062632;28;20040;-82
2023/03/26 12:22:28;;;;;;;9.07;6.53;;;9.10;99.90;;;;;;5061158;28;20043;-85
2023/03/26 12:25:20;;;;;;;20.77;7.85;;;9.00;99.90;;;;;;5062615;28;20024;-83
2023/03/26 12:27:48;;;;;;;14.07;6.78;;;8.90;99.90;;;;;;5062456;28;20123;-83
2023/03/26 12:30:19;;;;;;;15.52;6.25;;;8.80;99.90;;;;;;5062211;28;20056;-83
2023/03/26 12:32:47;;;;;;;13.80;6.28;;;8.80;99.90;;;;;;5077746;28;20082;-83
2023/03/26 12:35:26;;;;;;;12.60;5.50;;;8.80;99.90;;;;;;5055083;28;20036;-82
2023/03/26 12:38:11;;;;;;;15.05;6.55;;;8.70;99.90;;;;;;5055829;28;20025;-84
2023/03/26 12:40:38;;;;;;;9.73;4.88;;;8.80;99.90;;;;;;5062369;28;20032;-81
2023/03/26 12:43:28;;;;;;;13.85;5.85;;;8.80;99.90;;;;;;5054452;28;20047;-82
2023/03/26 12:45:57;;;;;;;13.93;5.20;;;8.90;99.90;;;;;;5061766;28;20547;-82
2023/03/26 12:48:25;;;;;;;14.48;5.18;;;9.00;99.90;;;;;;5061647;28;20079;-83
2023/03/26 12:51:17;;;;;;;14.18;5.88;;;9.10;99.90;;;;;;5077341;28;20090;-83
2023/03/26 12:54:04;;;;;;;15.25;5.82;;;9.10;99.90;;;;;;5055199;28;20052;-83
2023/03/26 12:56:46;;;;;;;12.85;4.75;;;9.30;99.90;;;;;;5059250;28;20044;-82
2023/03/26 12:59:53;;;;;;;15.80;5.95;;;9.40;99.90;;;;;;5059954;28;20024;-82
2023/03/26 13:02:34;;;;;;;13.00;5.00;;;9.40;99.90;;;;;;5061227;28;20126;-81
2023/03/26 13:05:13;;;;;;;14.38;4.90;;;9.50;99.90;;;;;;5059558;28;20044;-82
2023/03/26 13:07:46;;;;;;;11.20;4.50;;;9.50;99.90;;;;;;5061966;28;20127;-83
2023/03/26 13:10:40;;;;;;;13.67;4.17;;;9.50;99.90;;;;;;5058635;28;20032;-86
2023/03/26 13:13:23;;;;;;;10.05;4.22;;;9.60;99.90;;;;;;5054818;28;20617;-84
2023/03/26 13:15:55;;;;;;;;;;;9.50;99.90;;;;;;5062309;28;20029;-83
2023/03/26 13:18:40;;;;;;;12.30;3.97;;;9.30;99.90;;;;;;5061528;28;19919;-84
2023/03/26 13:21:24;;;;;;;9.68;3.95;;;9.10;99.90;;;;;;5060046;28;20879;-84
2023/03/26 13:23:53;;;;;;;10.88;4.00;;;8.90;99.90;;;;;;5054417;28;20036;-83